Star Princess — ZCDD6 — position and weather

sailwx.info

Track history (hours):
 
Tides and Currents Weather Stations Pressure Air Temp Water Temp Dewpoint Dewpoint Depression Visibility Wind Speed Wind Dir Waves Ship Positions

Star Princess

Operator: Princess Cruises

Last reported at 2015-Mar-26 00:00 UTC. Time now 2015-Mar-29 04:20 UTC.
Position N 21°54' W 151°12'.

Length 289.6 m; beam 36 m; draft 8.4 m.

Type: Ship. MMSI: 310361000.

Wind from 320 at 20 knots

Waves 1.0 meters (3 feet), 3 second period

Barometer 1017.9 mb
Air temperature 23.3 ° C
Visibility: greater than 10.8 NM
Dewpoint 20.6 ° C
Water temperature 25.0 ° C

Date/timePositionNaut miles runAvg speedWind from/ knotsBaromVisibWave heightAir tempDewpointWater temp
2015-Mar-26 00:00N 21°54' W 151°12'6115.1 320 / 201017.910.8 1.023.320.625.0
2015-Mar-25 20:00N 22°18' W 150°12'   210 / 61019.010.8 0.524.519.925.0
2015-Mar-22 04:32N 37°18' W 123°30'1717.0
2015-Mar-22 03:33N 37°31' W 123°17'1717.0
2015-Mar-22 02:33N 37°38' W 122°57'1515.4
2015-Mar-22 01:33N 37°45' W 122°40'1313.0
2015-Mar-22 00:33N 37°49' W 122°25'1 0.7
2015-Mar-21 23:31N 37°48' W 122°24'0 0.0
2015-Mar-21 22:33N 37°48' W 122°24'0 0.0
2015-Mar-21 21:30N 37°48' W 122°24'0 0.0
2015-Mar-21 20:33N 37°48' W 122°24'0 0.0
2015-Mar-21 19:32N 37°48' W 122°24'0 0.0
2015-Mar-21 18:32N 37°48' W 122°24'0 0.0
2015-Mar-21 17:28N 37°48' W 122°24'0 0.0
2015-Mar-21 16:28N 37°48' W 122°24'0 0.0
2015-Mar-21 15:33N 37°48' W 122°24'0 0.0
2015-Mar-21 14:33N 37°48' W 122°24'0 0.1
2015-Mar-21 13:33N 37°49' W 122°24'8 8.2
2015-Mar-21 12:33N 37°47' W 122°34'10 9.6
2015-Mar-21 11:33N 37°39' W 122°40'1312.8
2015-Mar-21 10:33N 37°26' W 122°40'1413.5
2015-Mar-21 09:32N 37°12' W 122°44'4413.9
2015-Mar-21 06:23N 36°29' W 122°47'1214.4
2015-Mar-21 05:31N 36°17' W 122°41'1514.5
2015-Mar-21 04:28N 36°03' W 122°32'1314.3
2015-Mar-21 03:33N 35°52' W 122°25'1414.5
2015-Mar-21 02:33N 35°38' W 122°19'1514.6
2015-Mar-21 01:33N 35°24' W 122°13'1414.3
2015-Mar-21 00:33N 35°10' W 122°08'1514.6
2015-Mar-20 23:33N 34°57' W 122°02'1414.3
2015-Mar-20 22:33N 34°43' W 121°56'1414.4
2015-Mar-20 21:33N 34°29' W 121°51'4514.7
2015-Mar-20 18:30N 33°47' W 121°33'1614.8
2015-Mar-20 17:25N 33°32' W 121°27'1315.0
2015-Mar-20 16:32N 33°19' W 121°22'1715.0
2015-Mar-20 15:25N 33°03' W 121°16'4415.3
2015-Mar-20 12:33N 32°36' W 120°35'1717.0
2015-Mar-20 11:33N 32°31' W 120°16'1816.9
2015-Mar-20 10:30N 32°27' W 119°55'1716.9
2015-Mar-20 09:28N 32°22' W 119°35'8517.2
2015-Mar-20 04:31N 31°60' W 117°58'18 0.9
2015-Mar-19 08:15N 31°51' W 117°39'810.9
2015-Mar-19 07:29N 31°53' W 117°49'17 7.6
2015-Mar-19 05:13N 32°10' W 117°46'811.6
2015-Mar-19 04:33N 32°16' W 117°40'1211.8
2015-Mar-19 03:31N 32°25' W 117°29'1111.8
2015-Mar-19 02:33N 32°33' W 117°20'1010.2
2015-Mar-19 01:33N 32°42' W 117°14'3 3.2
2015-Mar-19 00:32N 32°43' W 117°10'0 0.0
2015-Mar-18 23:28N 32°43' W 117°10'0 0.0
2015-Mar-18 22:31N 32°43' W 117°10'0 0.0
2015-Mar-18 21:33N 32°43' W 117°10'0 0.0
2015-Mar-18 20:33N 32°43' W 117°10'0 0.0
2015-Mar-18 19:33N 32°43' W 117°10'0 0.0
2015-Mar-18 18:32N 32°43' W 117°10'0 0.0
2015-Mar-18 17:32N 32°43' W 117°10'0 0.0
2015-Mar-18 16:31N 32°43' W 117°10'0 0.0
2015-Mar-18 15:31N 32°43' W 117°10'0 0.0
2015-Mar-18 14:34N 32°43' W 117°10'1 0.7
2015-Mar-18 13:33N 32°43' W 117°11'9 8.8
2015-Mar-18 12:33N 32°35' W 117°16'1312.0
2015-Mar-18 11:30N 32°28' W 117°28'1212.1
2015-Mar-18 10:30N 32°21' W 117°40'18 8.0
2015-Mar-18 08:14N 32°21' W 118°02'912.3
2015-Mar-18 07:32N 32°30' W 118°03'1212.3
2015-Mar-18 06:33N 32°42' W 118°03'1212.0
2015-Mar-18 05:33N 32°54' W 118°04'1212.3
2015-Mar-18 04:33N 33°06' W 118°04'1212.0
2015-Mar-18 03:33N 33°18' W 118°06'1212.0
2015-Mar-18 02:33N 33°30' W 118°11'1111.2
2015-Mar-18 01:33N 33°41' W 118°11'4 4.3
2015-Mar-18 00:33N 33°45' W 118°11'0 0.0
2015-Mar-17 23:33N 33°45' W 118°11'0 0.0
2015-Mar-17 22:32N 33°45' W 118°11'0 0.0
2015-Mar-17 21:32N 33°45' W 118°11'0 0.0
2015-Mar-17 20:28N 33°45' W 118°11'0 0.0
2015-Mar-17 19:28N 33°45' W 118°11'0 0.0
2015-Mar-17 18:30N 33°45' W 118°11'0 0.0
2015-Mar-17 17:33N 33°45' W 118°11'0 0.0
2015-Mar-17 16:21N 33°45' W 118°11'0 0.0
2015-Mar-17 15:29N 33°45' W 118°11'0 0.0
2015-Mar-17 14:32N 33°45' W 118°11'0 0.1
2015-Mar-17 13:33N 33°45' W 118°11'6 5.8
2015-Mar-17 12:33N 33°39' W 118°11'1111.0
2015-Mar-17 11:33N 33°37' W 118°23'1212.1
2015-Mar-17 10:33N 33°40' W 118°37'1211.7
2015-Mar-17 09:33N 33°42' W 118°51'1211.2
2015-Mar-17 08:28N 33°44' W 119°06'8 7.3
2015-Mar-17 07:21N 33°45' W 118°56'6 7.3
2015-Mar-17 06:33N 33°46' W 118°49'1211.7
2015-Mar-17 05:33N 33°51' W 119°02'1010.3
2015-Mar-17 04:33N 33°59' W 119°09'1211.9
2015-Mar-17 03:33N 34°04' W 119°23'1311.7
2015-Mar-17 02:27N 34°08' W 119°37'1011.6
2015-Mar-17 01:33N 34°18' W 119°41'104 5.0
2015-Mar-16 04:33N 34°29' W 121°46'1312.6
2015-Mar-16 03:32N 34°29' W 122°01'1212.3
2015-Mar-16 02:33N 34°29' W 122°16'1212.4
2015-Mar-16 01:33N 34°29' W 122°31'1212.2
2015-Mar-16 00:33N 34°30' W 122°46'  
Track history (hours):
 
Tides and Currents Weather Stations Pressure Air Temp Water Temp Dewpoint Dewpoint Depression Visibility Wind Speed Wind Dir Waves Ship Positions

Star Princess

Operator: Princess Cruises

Last reported at 2015-Mar-26 00:00 UTC. Time now 2015-Mar-29 04:20 UTC.
Position N 21°54' W 151°12'.

Length 289.6 m; beam 36 m; draft 8.4 m.

Type: Ship. MMSI: 310361000.

Wind from 320 at 20 knots

Waves 1.0 meters (3 feet), 3 second period

Barometer 1017.9 mb
Air temperature 23.3 ° C
Visibility: greater than 10.8 NM
Dewpoint 20.6 ° C
Water temperature 25.0 ° C

Date/timePositionNaut miles runAvg speedWind from/ knotsBaromVisibWave heightAir tempDewpointWater temp
2015-Mar-26 00:00N 21°54' W 151°12'6115.1 320 / 201017.910.8 1.023.320.625.0
2015-Mar-25 20:00N 22°18' W 150°12'   210 / 61019.010.8 0.524.519.925.0
2015-Mar-22 04:32N 37°18' W 123°30'1717.0
2015-Mar-22 03:33N 37°31' W 123°17'1717.0
2015-Mar-22 02:33N 37°38' W 122°57'1515.4
2015-Mar-22 01:33N 37°45' W 122°40'1313.0
2015-Mar-22 00:33N 37°49' W 122°25'1 0.7
2015-Mar-21 23:31N 37°48' W 122°24'0 0.0
2015-Mar-21 22:33N 37°48' W 122°24'0 0.0
2015-Mar-21 21:30N 37°48' W 122°24'0 0.0
2015-Mar-21 20:33N 37°48' W 122°24'0 0.0
2015-Mar-21 19:32N 37°48' W 122°24'0 0.0
2015-Mar-21 18:32N 37°48' W 122°24'0 0.0
2015-Mar-21 17:28N 37°48' W 122°24'0 0.0
2015-Mar-21 16:28N 37°48' W 122°24'0 0.0
2015-Mar-21 15:33N 37°48' W 122°24'0 0.0
2015-Mar-21 14:33N 37°48' W 122°24'0 0.1
2015-Mar-21 13:33N 37°49' W 122°24'8 8.2
2015-Mar-21 12:33N 37°47' W 122°34'10 9.6
2015-Mar-21 11:33N 37°39' W 122°40'1312.8
2015-Mar-21 10:33N 37°26' W 122°40'1413.5
2015-Mar-21 09:32N 37°12' W 122°44'4413.9
2015-Mar-21 06:23N 36°29' W 122°47'1214.4
2015-Mar-21 05:31N 36°17' W 122°41'1514.5
2015-Mar-21 04:28N 36°03' W 122°32'1314.3
2015-Mar-21 03:33N 35°52' W 122°25'1414.5
2015-Mar-21 02:33N 35°38' W 122°19'1514.6
2015-Mar-21 01:33N 35°24' W 122°13'1414.3
2015-Mar-21 00:33N 35°10' W 122°08'1514.6
2015-Mar-20 23:33N 34°57' W 122°02'1414.3
2015-Mar-20 22:33N 34°43' W 121°56'1414.4
2015-Mar-20 21:33N 34°29' W 121°51'4514.7
2015-Mar-20 18:30N 33°47' W 121°33'1614.8
2015-Mar-20 17:25N 33°32' W 121°27'1315.0
2015-Mar-20 16:32N 33°19' W 121°22'1715.0
2015-Mar-20 15:25N 33°03' W 121°16'4415.3
2015-Mar-20 12:33N 32°36' W 120°35'1717.0
2015-Mar-20 11:33N 32°31' W 120°16'1816.9
2015-Mar-20 10:30N 32°27' W 119°55'1716.9
2015-Mar-20 09:28N 32°22' W 119°35'8517.2
2015-Mar-20 04:31N 31°60' W 117°58'18 0.9
2015-Mar-19 08:15N 31°51' W 117°39'810.9
2015-Mar-19 07:29N 31°53' W 117°49'17 7.6
2015-Mar-19 05:13N 32°10' W 117°46'811.6
2015-Mar-19 04:33N 32°16' W 117°40'1211.8
2015-Mar-19 03:31N 32°25' W 117°29'1111.8
2015-Mar-19 02:33N 32°33' W 117°20'1010.2
2015-Mar-19 01:33N 32°42' W 117°14'3 3.2
2015-Mar-19 00:32N 32°43' W 117°10'0 0.0
2015-Mar-18 23:28N 32°43' W 117°10'0 0.0
2015-Mar-18 22:31N 32°43' W 117°10'0 0.0
2015-Mar-18 21:33N 32°43' W 117°10'0 0.0
2015-Mar-18 20:33N 32°43' W 117°10'0 0.0
2015-Mar-18 19:33N 32°43' W 117°10'0 0.0
2015-Mar-18 18:32N 32°43' W 117°10'0 0.0
2015-Mar-18 17:32N 32°43' W 117°10'0 0.0
2015-Mar-18 16:31N 32°43' W 117°10'0 0.0
2015-Mar-18 15:31N 32°43' W 117°10'0 0.0
2015-Mar-18 14:34N 32°43' W 117°10'1 0.7
2015-Mar-18 13:33N 32°43' W 117°11'9 8.8
2015-Mar-18 12:33N 32°35' W 117°16'1312.0
2015-Mar-18 11:30N 32°28' W 117°28'1212.1
2015-Mar-18 10:30N 32°21' W 117°40'18 8.0
2015-Mar-18 08:14N 32°21' W 118°02'912.3
2015-Mar-18 07:32N 32°30' W 118°03'1212.3
2015-Mar-18 06:33N 32°42' W 118°03'1212.0
2015-Mar-18 05:33N 32°54' W 118°04'1212.3
2015-Mar-18 04:33N 33°06' W 118°04'1212.0
2015-Mar-18 03:33N 33°18' W 118°06'1212.0
2015-Mar-18 02:33N 33°30' W 118°11'1111.2
2015-Mar-18 01:33N 33°41' W 118°11'4 4.3
2015-Mar-18 00:33N 33°45' W 118°11'0 0.0
2015-Mar-17 23:33N 33°45' W 118°11'0 0.0
2015-Mar-17 22:32N 33°45' W 118°11'0 0.0
2015-Mar-17 21:32N 33°45' W 118°11'0 0.0
2015-Mar-17 20:28N 33°45' W 118°11'0 0.0
2015-Mar-17 19:28N 33°45' W 118°11'0 0.0
2015-Mar-17 18:30N 33°45' W 118°11'0 0.0
2015-Mar-17 17:33N 33°45' W 118°11'0 0.0
2015-Mar-17 16:21N 33°45' W 118°11'0 0.0
2015-Mar-17 15:29N 33°45' W 118°11'0 0.0
2015-Mar-17 14:32N 33°45' W 118°11'0 0.1
2015-Mar-17 13:33N 33°45' W 118°11'6 5.8
2015-Mar-17 12:33N 33°39' W 118°11'1111.0
2015-Mar-17 11:33N 33°37' W 118°23'1212.1
2015-Mar-17 10:33N 33°40' W 118°37'1211.7
2015-Mar-17 09:33N 33°42' W 118°51'1211.2
2015-Mar-17 08:28N 33°44' W 119°06'8 7.3
2015-Mar-17 07:21N 33°45' W 118°56'6 7.3
2015-Mar-17 06:33N 33°46' W 118°49'1211.7
2015-Mar-17 05:33N 33°51' W 119°02'1010.3
2015-Mar-17 04:33N 33°59' W 119°09'1211.9
2015-Mar-17 03:33N 34°04' W 119°23'1311.7
2015-Mar-17 02:27N 34°08' W 119°37'1011.6
2015-Mar-17 01:33N 34°18' W 119°41'104 5.0
2015-Mar-16 04:33N 34°29' W 121°46'1312.6
2015-Mar-16 03:32N 34°29' W 122°01'1212.3
2015-Mar-16 02:33N 34°29' W 122°16'1212.4
2015-Mar-16 01:33N 34°29' W 122°31'1212.2
2015-Mar-16 00:33N 34°30' W 122°46'  

Dump ship's entire track history